sensor_id;sensor_type;location;lat;lon;timestamp;temperature;humidity
36498;DHT22;22513;51.222;6.480;2024-02-15T00:00:03;21.50;60.90
36498;DHT22;22513;51.222;6.480;2024-02-15T00:02:29;21.50;60.90
36498;DHT22;22513;51.222;6.480;2024-02-15T00:04:55;21.50;60.90
36498;DHT22;22513;51.222;6.480;2024-02-15T00:07:21;21.50;60.90
36498;DHT22;22513;51.222;6.480;2024-02-15T00:09:48;21.50;61.10
36498;DHT22;22513;51.222;6.480;2024-02-15T00:12:14;21.50;60.90
36498;DHT22;22513;51.222;6.480;2024-02-15T00:14:39;21.50;60.90
36498;DHT22;22513;51.222;6.480;2024-02-15T00:17:05;21.50;60.90
36498;DHT22;22513;51.222;6.480;2024-02-15T00:19:31;21.50;60.90
36498;DHT22;22513;51.222;6.480;2024-02-15T00:21:56;21.50;60.90
36498;DHT22;22513;51.222;6.480;2024-02-15T00:24:23;21.50;60.90
36498;DHT22;22513;51.222;6.480;2024-02-15T00:26:49;21.50;60.90
36498;DHT22;22513;51.222;6.480;2024-02-15T00:29:15;21.50;60.90
36498;DHT22;22513;51.222;6.480;2024-02-15T00:31:41;21.50;60.90
36498;DHT22;22513;51.222;6.480;2024-02-15T00:34:06;21.50;60.90
36498;DHT22;22513;51.222;6.480;2024-02-15T00:36:34;21.40;60.70
36498;DHT22;22513;51.222;6.480;2024-02-15T00:39:00;21.50;60.90
36498;DHT22;22513;51.222;6.480;2024-02-15T00:41:26;21.50;60.90
36498;DHT22;22513;51.222;6.480;2024-02-15T00:43:53;21.50;60.90
36498;DHT22;22513;51.222;6.480;2024-02-15T00:46:18;21.50;60.90
36498;DHT22;22513;51.222;6.480;2024-02-15T00:48:44;21.50;60.80
36498;DHT22;22513;51.222;6.480;2024-02-15T00:51:10;21.50;60.80
36498;DHT22;22513;51.222;6.480;2024-02-15T00:53:36;21.50;60.90
36498;DHT22;22513;51.222;6.480;2024-02-15T00:56:01;21.40;60.70
36498;DHT22;22513;51.222;6.480;2024-02-15T00:58:27;21.50;60.80
36498;DHT22;22513;51.222;6.480;2024-02-15T01:00:53;21.50;60.80
36498;DHT22;22513;51.222;6.480;2024-02-15T01:03:19;21.50;60.80
36498;DHT22;22513;51.222;6.480;2024-02-15T01:05:45;21.40;60.70
36498;DHT22;22513;51.222;6.480;2024-02-15T01:08:11;21.50;60.80
36498;DHT22;22513;51.222;6.480;2024-02-15T01:10:37;21.50;60.80
36498;DHT22;22513;51.222;6.480;2024-02-15T01:13:03;21.50;60.70
36498;DHT22;22513;51.222;6.480;2024-02-15T01:15:28;21.40;60.70
36498;DHT22;22513;51.222;6.480;2024-02-15T01:17:55;21.50;60.80
36498;DHT22;22513;51.222;6.480;2024-02-15T01:20:20;21.50;60.70
36498;DHT22;22513;51.222;6.480;2024-02-15T01:22:46;21.50;60.80
36498;DHT22;22513;51.222;6.480;2024-02-15T01:25:12;21.50;60.70
36498;DHT22;22513;51.222;6.480;2024-02-15T01:27:40;21.50;60.70
36498;DHT22;22513;51.222;6.480;2024-02-15T01:30:06;21.50;60.70
36498;DHT22;22513;51.222;6.480;2024-02-15T01:32:33;21.40;60.70
36498;DHT22;22513;51.222;6.480;2024-02-15T01:34:59;21.50;60.70
36498;DHT22;22513;51.222;6.480;2024-02-15T01:37:25;21.50;60.70
36498;DHT22;22513;51.222;6.480;2024-02-15T01:39:51;21.40;60.70
36498;DHT22;22513;51.222;6.480;2024-02-15T01:42:16;21.50;60.70
36498;DHT22;22513;51.222;6.480;2024-02-15T01:44:42;21.50;60.70
36498;DHT22;22513;51.222;6.480;2024-02-15T01:47:13;21.40;60.60
36498;DHT22;22513;51.222;6.480;2024-02-15T01:49:38;21.50;60.60
36498;DHT22;22513;51.222;6.480;2024-02-15T01:52:07;21.50;60.70
36498;DHT22;22513;51.222;6.480;2024-02-15T01:54:34;21.50;60.70
36498;DHT22;22513;51.222;6.480;2024-02-15T01:57:02;21.40;60.60
36498;DHT22;22513;51.222;6.480;2024-02-15T01:59:29;21.50;60.70
36498;DHT22;22513;51.222;6.480;2024-02-15T02:01:56;21.50;60.60
36498;DHT22;22513;51.222;6.480;2024-02-15T02:04:21;21.50;60.60
36498;DHT22;22513;51.222;6.480;2024-02-15T02:06:47;21.50;60.60
36498;DHT22;22513;51.222;6.480;2024-02-15T02:09:13;21.40;60.60
36498;DHT22;22513;51.222;6.480;2024-02-15T02:11:40;21.50;60.60
36498;DHT22;22513;51.222;6.480;2024-02-15T02:14:06;21.50;60.60
36498;DHT22;22513;51.222;6.480;2024-02-15T02:16:32;21.50;60.60
36498;DHT22;22513;51.222;6.480;2024-02-15T02:18:58;21.50;60.70
36498;DHT22;22513;51.222;6.480;2024-02-15T02:21:28;21.50;60.60
36498;DHT22;22513;51.222;6.480;2024-02-15T02:23:58;21.50;60.60
36498;DHT22;22513;51.222;6.480;2024-02-15T02:26:24;21.50;60.60
36498;DHT22;22513;51.222;6.480;2024-02-15T02:28:51;21.50;60.60
36498;DHT22;22513;51.222;6.480;2024-02-15T02:31:20;21.50;60.60
36498;DHT22;22513;51.222;6.480;2024-02-15T02:33:49;21.40;60.60
36498;DHT22;22513;51.222;6.480;2024-02-15T02:36:17;21.50;60.60
36498;DHT22;22513;51.222;6.480;2024-02-15T02:38:43;21.40;60.50
36498;DHT22;22513;51.222;6.480;2024-02-15T02:41:11;21.50;60.60
36498;DHT22;22513;51.222;6.480;2024-02-15T02:43:36;21.40;60.60
36498;DHT22;22513;51.222;6.480;2024-02-15T02:46:03;21.50;61.50
36498;DHT22;22513;51.222;6.480;2024-02-15T02:48:31;21.50;60.60
36498;DHT22;22513;51.222;6.480;2024-02-15T02:50:57;21.40;60.50
36498;DHT22;22513;51.222;6.480;2024-02-15T02:53:23;21.40;60.60
36498;DHT22;22513;51.222;6.480;2024-02-15T02:55:49;21.50;60.60
36498;DHT22;22513;51.222;6.480;2024-02-15T02:58:15;21.50;60.60
36498;DHT22;22513;51.222;6.480;2024-02-15T03:00:41;21.50;60.60
36498;DHT22;22513;51.222;6.480;2024-02-15T03:03:08;21.40;60.50
36498;DHT22;22513;51.222;6.480;2024-02-15T03:05:34;21.40;60.50
36498;DHT22;22513;51.222;6.480;2024-02-15T03:08:00;21.50;60.60
36498;DHT22;22513;51.222;6.480;2024-02-15T03:10:26;21.40;60.50
36498;DHT22;22513;51.222;6.480;2024-02-15T03:12:51;21.40;60.50
36498;DHT22;22513;51.222;6.480;2024-02-15T03:15:18;21.40;60.50
36498;DHT22;22513;51.222;6.480;2024-02-15T03:17:46;21.50;60.60
36498;DHT22;22513;51.222;6.480;2024-02-15T03:20:12;21.40;60.50
36498;DHT22;22513;51.222;6.480;2024-02-15T03:22:55;21.40;60.50
36498;DHT22;22513;51.222;6.480;2024-02-15T03:25:21;21.40;60.50
36498;DHT22;22513;51.222;6.480;2024-02-15T03:27:52;21.40;60.50
36498;DHT22;22513;51.222;6.480;2024-02-15T03:30:18;21.40;60.50
36498;DHT22;22513;51.222;6.480;2024-02-15T03:32:47;21.40;60.50
36498;DHT22;22513;51.222;6.480;2024-02-15T03:35:17;21.40;60.40
36498;DHT22;22513;51.222;6.480;2024-02-15T03:37:42;21.40;60.50
36498;DHT22;22513;51.222;6.480;2024-02-15T03:40:08;21.40;60.50
36498;DHT22;22513;51.222;6.480;2024-02-15T03:42:35;21.40;60.50
36498;DHT22;22513;51.222;6.480;2024-02-15T03:45:04;21.40;60.50
36498;DHT22;22513;51.222;6.480;2024-02-15T03:47:35;21.40;60.50
36498;DHT22;22513;51.222;6.480;2024-02-15T03:50:08;21.40;60.50
36498;DHT22;22513;51.222;6.480;2024-02-15T03:52:38;21.40;60.50
36498;DHT22;22513;51.222;6.480;2024-02-15T03:55:04;21.40;60.50
36498;DHT22;22513;51.222;6.480;2024-02-15T03:57:30;21.40;60.50
36498;DHT22;22513;51.222;6.480;2024-02-15T03:59:55;21.40;60.50
36498;DHT22;22513;51.222;6.480;2024-02-15T04:02:25;21.40;60.50
36498;DHT22;22513;51.222;6.480;2024-02-15T04:04:52;21.40;60.50
36498;DHT22;22513;51.222;6.480;2024-02-15T04:07:20;21.40;60.50
36498;DHT22;22513;51.222;6.480;2024-02-15T04:09:47;21.40;60.50
36498;DHT22;22513;51.222;6.480;2024-02-15T04:12:12;21.40;60.50
36498;DHT22;22513;51.222;6.480;2024-02-15T04:14:40;21.40;60.50
36498;DHT22;22513;51.222;6.480;2024-02-15T04:17:06;21.40;60.50
36498;DHT22;22513;51.222;6.480;2024-02-15T04:19:32;21.40;60.50
36498;DHT22;22513;51.222;6.480;2024-02-15T04:21:58;21.40;60.50
36498;DHT22;22513;51.222;6.480;2024-02-15T04:24:25;21.40;60.50
36498;DHT22;22513;51.222;6.480;2024-02-15T04:26:51;21.40;60.50
36498;DHT22;22513;51.222;6.480;2024-02-15T04:29:17;21.40;60.40
36498;DHT22;22513;51.222;6.480;2024-02-15T04:31:48;21.40;60.40
36498;DHT22;22513;51.222;6.480;2024-02-15T04:34:15;21.40;60.40
36498;DHT22;22513;51.222;6.480;2024-02-15T04:36:43;21.40;60.50
36498;DHT22;22513;51.222;6.480;2024-02-15T04:39:10;21.40;60.40
36498;DHT22;22513;51.222;6.480;2024-02-15T04:41:39;21.40;60.40
36498;DHT22;22513;51.222;6.480;2024-02-15T04:44:05;21.40;60.40
36498;DHT22;22513;51.222;6.480;2024-02-15T04:46:33;21.40;60.30
36498;DHT22;22513;51.222;6.480;2024-02-15T04:48:59;21.40;60.30
36498;DHT22;22513;51.222;6.480;2024-02-15T04:51:27;21.40;60.40
36498;DHT22;22513;51.222;6.480;2024-02-15T04:53:53;21.40;60.50
36498;DHT22;22513;51.222;6.480;2024-02-15T04:56:18;21.40;60.40
36498;DHT22;22513;51.222;6.480;2024-02-15T04:58:46;21.40;60.40
36498;DHT22;22513;51.222;6.480;2024-02-15T05:01:16;21.40;60.40
36498;DHT22;22513;51.222;6.480;2024-02-15T05:03:43;21.40;60.40
36498;DHT22;22513;51.222;6.480;2024-02-15T05:06:08;21.40;60.40
36498;DHT22;22513;51.222;6.480;2024-02-15T05:08:35;21.40;60.40
36498;DHT22;22513;51.222;6.480;2024-02-15T05:11:03;21.40;60.50
36498;DHT22;22513;51.222;6.480;2024-02-15T05:13:30;21.40;60.60
36498;DHT22;22513;51.222;6.480;2024-02-15T05:15:56;21.40;60.70
36498;DHT22;22513;51.222;6.480;2024-02-15T05:18:21;21.40;60.70
36498;DHT22;22513;51.222;6.480;2024-02-15T05:20:47;21.40;60.70
36498;DHT22;22513;51.222;6.480;2024-02-15T05:23:13;21.40;60.80
36498;DHT22;22513;51.222;6.480;2024-02-15T05:25:40;21.40;61.00
36498;DHT22;22513;51.222;6.480;2024-02-15T05:28:06;21.40;61.30
36498;DHT22;22513;51.222;6.480;2024-02-15T05:30:33;21.40;61.60
36498;DHT22;22513;51.222;6.480;2024-02-15T05:32:59;21.40;61.90
36498;DHT22;22513;51.222;6.480;2024-02-15T05:35:25;21.40;62.10
36498;DHT22;22513;51.222;6.480;2024-02-15T05:37:52;21.40;62.30
36498;DHT22;22513;51.222;6.480;2024-02-15T05:40:18;21.40;62.50
36498;DHT22;22513;51.222;6.480;2024-02-15T05:42:45;21.40;62.60
36498;DHT22;22513;51.222;6.480;2024-02-15T05:47:50;21.40;63.00
36498;DHT22;22513;51.222;6.480;2024-02-15T05:50:16;21.40;62.90
36498;DHT22;22513;51.222;6.480;2024-02-15T05:52:44;21.40;62.90
36498;DHT22;22513;51.222;6.480;2024-02-15T05:55:10;21.40;63.00
36498;DHT22;22513;51.222;6.480;2024-02-15T05:57:36;21.40;63.00
36498;DHT22;22513;51.222;6.480;2024-02-15T06:00:01;21.40;63.10
36498;DHT22;22513;51.222;6.480;2024-02-15T06:02:28;21.40;63.10
36498;DHT22;22513;51.222;6.480;2024-02-15T06:04:55;21.40;63.30
36498;DHT22;22513;51.222;6.480;2024-02-15T06:07:26;21.40;63.30
36498;DHT22;22513;51.222;6.480;2024-02-15T06:09:52;21.40;63.30
36498;DHT22;22513;51.222;6.480;2024-02-15T06:12:17;21.40;63.40
36498;DHT22;22513;51.222;6.480;2024-02-15T06:14:43;21.40;63.50
36498;DHT22;22513;51.222;6.480;2024-02-15T06:17:08;21.40;63.50
36498;DHT22;22513;51.222;6.480;2024-02-15T06:19:36;21.40;63.60
36498;DHT22;22513;51.222;6.480;2024-02-15T06:22:01;21.40;63.60
36498;DHT22;22513;51.222;6.480;2024-02-15T06:24:27;21.40;63.70
36498;DHT22;22513;51.222;6.480;2024-02-15T06:26:53;21.40;63.70
36498;DHT22;22513;51.222;6.480;2024-02-15T06:29:25;21.40;63.80
36498;DHT22;22513;51.222;6.480;2024-02-15T06:32:10;21.40;63.90
36498;DHT22;22513;51.222;6.480;2024-02-15T06:34:54;21.40;63.90
36498;DHT22;22513;51.222;6.480;2024-02-15T06:37:39;21.40;63.90
36498;DHT22;22513;51.222;6.480;2024-02-15T06:40:23;21.40;63.90
36498;DHT22;22513;51.222;6.480;2024-02-15T06:42:49;21.40;64.00
36498;DHT22;22513;51.222;6.480;2024-02-15T06:45:16;21.40;64.00
36498;DHT22;22513;51.222;6.480;2024-02-15T06:47:45;21.40;64.10
36498;DHT22;22513;51.222;6.480;2024-02-15T06:50:12;21.40;64.10
36498;DHT22;22513;51.222;6.480;2024-02-15T06:52:39;21.40;64.20
36498;DHT22;22513;51.222;6.480;2024-02-15T06:55:07;21.40;64.30
36498;DHT22;22513;51.222;6.480;2024-02-15T06:57:35;21.40;64.30
36498;DHT22;22513;51.222;6.480;2024-02-15T07:00:04;21.50;64.40
36498;DHT22;22513;51.222;6.480;2024-02-15T07:02:34;21.40;64.40
36498;DHT22;22513;51.222;6.480;2024-02-15T07:05:00;21.40;64.40
36498;DHT22;22513;51.222;6.480;2024-02-15T07:07:26;21.40;64.40
36498;DHT22;22513;51.222;6.480;2024-02-15T07:09:52;21.40;64.50
36498;DHT22;22513;51.222;6.480;2024-02-15T07:12:18;21.40;64.50
36498;DHT22;22513;51.222;6.480;2024-02-15T07:14:45;21.40;64.50
36498;DHT22;22513;51.222;6.480;2024-02-15T07:17:12;21.40;64.60
36498;DHT22;22513;51.222;6.480;2024-02-15T07:19:44;21.50;64.60
36498;DHT22;22513;51.222;6.480;2024-02-15T07:22:10;21.40;64.60
36498;DHT22;22513;51.222;6.480;2024-02-15T07:24:37;21.40;64.60
36498;DHT22;22513;51.222;6.480;2024-02-15T07:27:05;21.40;64.60
36498;DHT22;22513;51.222;6.480;2024-02-15T07:29:31;21.50;64.70
36498;DHT22;22513;51.222;6.480;2024-02-15T07:32:05;21.40;64.70
36498;DHT22;22513;51.222;6.480;2024-02-15T07:34:31;21.50;65.60
36498;DHT22;22513;51.222;6.480;2024-02-15T07:36:58;21.50;64.80
36498;DHT22;22513;51.222;6.480;2024-02-15T07:39:24;21.50;64.90
36498;DHT22;22513;51.222;6.480;2024-02-15T07:41:51;21.50;64.90
36498;DHT22;22513;51.222;6.480;2024-02-15T07:44:17;21.50;64.80
36498;DHT22;22513;51.222;6.480;2024-02-15T07:46:43;21.50;64.90
36498;DHT22;22513;51.222;6.480;2024-02-15T07:49:09;21.50;64.90
36498;DHT22;22513;51.222;6.480;2024-02-15T07:51:37;21.50;64.90
36498;DHT22;22513;51.222;6.480;2024-02-15T07:54:03;21.50;64.90
36498;DHT22;22513;51.222;6.480;2024-02-15T07:56:30;21.50;65.00
36498;DHT22;22513;51.222;6.480;2024-02-15T07:58:55;21.50;65.00
36498;DHT22;22513;51.222;6.480;2024-02-15T08:01:22;21.50;65.00
36498;DHT22;22513;51.222;6.480;2024-02-15T08:03:48;21.50;65.00
36498;DHT22;22513;51.222;6.480;2024-02-15T08:06:15;21.50;65.10
36498;DHT22;22513;51.222;6.480;2024-02-15T08:08:43;21.50;65.10
36498;DHT22;22513;51.222;6.480;2024-02-15T08:11:11;21.50;65.20
36498;DHT22;22513;51.222;6.480;2024-02-15T08:13:47;21.50;65.30
36498;DHT22;22513;51.222;6.480;2024-02-15T08:16:24;21.50;65.40
36498;DHT22;22513;51.222;6.480;2024-02-15T08:18:50;21.50;65.40
36498;DHT22;22513;51.222;6.480;2024-02-15T08:21:26;21.50;65.40
36498;DHT22;22513;51.222;6.480;2024-02-15T08:23:52;21.50;65.50
36498;DHT22;22513;51.222;6.480;2024-02-15T08:26:18;21.50;65.40
36498;DHT22;22513;51.222;6.480;2024-02-15T08:28:43;21.50;65.40
36498;DHT22;22513;51.222;6.480;2024-02-15T08:31:09;21.50;65.40
36498;DHT22;22513;51.222;6.480;2024-02-15T08:33:37;21.50;65.50
36498;DHT22;22513;51.222;6.480;2024-02-15T08:36:04;21.60;65.60
36498;DHT22;22513;51.222;6.480;2024-02-15T08:38:30;21.50;65.50
36498;DHT22;22513;51.222;6.480;2024-02-15T08:40:56;21.60;65.60
36498;DHT22;22513;51.222;6.480;2024-02-15T08:43:22;21.60;65.60
36498;DHT22;22513;51.222;6.480;2024-02-15T08:45:48;21.60;65.60
36498;DHT22;22513;51.222;6.480;2024-02-15T08:48:15;21.60;65.60
36498;DHT22;22513;51.222;6.480;2024-02-15T08:50:41;21.60;65.60
36498;DHT22;22513;51.222;6.480;2024-02-15T08:53:07;21.60;65.60
36498;DHT22;22513;51.222;6.480;2024-02-15T08:55:33;21.60;66.60
36498;DHT22;22513;51.222;6.480;2024-02-15T08:58:01;21.60;65.70
36498;DHT22;22513;51.222;6.480;2024-02-15T09:00:27;21.60;65.70
36498;DHT22;22513;51.222;6.480;2024-02-15T09:02:53;21.60;65.70
36498;DHT22;22513;51.222;6.480;2024-02-15T09:05:19;21.60;65.70
36498;DHT22;22513;51.222;6.480;2024-02-15T09:07:47;21.60;65.80
36498;DHT22;22513;51.222;6.480;2024-02-15T09:10:16;21.60;65.70
36498;DHT22;22513;51.222;6.480;2024-02-15T09:12:43;21.60;65.70
36498;DHT22;22513;51.222;6.480;2024-02-15T09:15:10;21.60;65.70
36498;DHT22;22513;51.222;6.480;2024-02-15T09:17:36;21.60;65.70
36498;DHT22;22513;51.222;6.480;2024-02-15T09:20:12;21.60;65.70
36498;DHT22;22513;51.222;6.480;2024-02-15T09:25:11;21.70;66.70
36498;DHT22;22513;51.222;6.480;2024-02-15T09:27:39;21.70;65.90
36498;DHT22;22513;51.222;6.480;2024-02-15T09:30:05;21.70;66.00
36498;DHT22;22513;51.222;6.480;2024-02-15T09:32:44;21.70;65.90
36498;DHT22;22513;51.222;6.480;2024-02-15T09:35:11;21.70;66.10
36498;DHT22;22513;51.222;6.480;2024-02-15T09:37:42;21.70;66.00
36498;DHT22;22513;51.222;6.480;2024-02-15T09:40:10;21.70;66.00
36498;DHT22;22513;51.222;6.480;2024-02-15T09:42:37;21.80;66.00
36498;DHT22;22513;51.222;6.480;2024-02-15T09:45:05;21.80;66.00
36498;DHT22;22513;51.222;6.480;2024-02-15T09:47:37;21.80;65.90
36498;DHT22;22513;51.222;6.480;2024-02-15T09:50:09;21.80;66.00
36498;DHT22;22513;51.222;6.480;2024-02-15T09:52:38;21.80;66.00
36498;DHT22;22513;51.222;6.480;2024-02-15T09:55:07;21.80;66.00
36498;DHT22;22513;51.222;6.480;2024-02-15T09:57:38;21.80;65.90
36498;DHT22;22513;51.222;6.480;2024-02-15T10:00:04;21.80;65.90
36498;DHT22;22513;51.222;6.480;2024-02-15T10:02:35;21.80;66.00
36498;DHT22;22513;51.222;6.480;2024-02-15T10:05:02;21.90;66.10
36498;DHT22;22513;51.222;6.480;2024-02-15T10:07:28;21.90;66.10
36498;DHT22;22513;51.222;6.480;2024-02-15T10:09:54;21.90;66.00
36498;DHT22;22513;51.222;6.480;2024-02-15T10:12:20;21.90;66.00
36498;DHT22;22513;51.222;6.480;2024-02-15T10:14:51;21.90;66.10
36498;DHT22;22513;51.222;6.480;2024-02-15T10:17:20;21.90;66.10
36498;DHT22;22513;51.222;6.480;2024-02-15T10:20:03;21.90;66.10
36498;DHT22;22513;51.222;6.480;2024-02-15T10:22:29;21.90;66.20
36498;DHT22;22513;51.222;6.480;2024-02-15T10:25:11;21.90;66.10
36498;DHT22;22513;51.222;6.480;2024-02-15T10:27:41;21.90;66.10
36498;DHT22;22513;51.222;6.480;2024-02-15T10:30:27;21.90;66.00
36498;DHT22;22513;51.222;6.480;2024-02-15T10:32:55;21.90;66.00
36498;DHT22;22513;51.222;6.480;2024-02-15T10:35:22;21.90;66.00
36498;DHT22;22513;51.222;6.480;2024-02-15T10:37:49;21.90;65.90
36498;DHT22;22513;51.222;6.480;2024-02-15T10:40:19;21.90;65.90
36498;DHT22;22513;51.222;6.480;2024-02-15T10:42:48;22.00;65.90
36498;DHT22;22513;51.222;6.480;2024-02-15T10:45:15;22.00;65.90
36498;DHT22;22513;51.222;6.480;2024-02-15T10:47:44;22.00;65.80
36498;DHT22;22513;51.222;6.480;2024-02-15T10:50:11;22.00;65.80
36498;DHT22;22513;51.222;6.480;2024-02-15T10:52:44;22.00;65.80
36498;DHT22;22513;51.222;6.480;2024-02-15T10:55:15;22.10;65.90
36498;DHT22;22513;51.222;6.480;2024-02-15T10:57:46;22.00;65.70
36498;DHT22;22513;51.222;6.480;2024-02-15T11:00:15;22.10;65.80
36498;DHT22;22513;51.222;6.480;2024-02-15T11:03:09;22.10;66.60
36498;DHT22;22513;51.222;6.480;2024-02-15T11:05:41;22.10;65.60
36498;DHT22;22513;51.222;6.480;2024-02-15T11:08:09;22.20;65.60
36498;DHT22;22513;51.222;6.480;2024-02-15T11:10:38;22.20;65.60
36498;DHT22;22513;51.222;6.480;2024-02-15T11:13:04;22.20;65.50
36498;DHT22;22513;51.222;6.480;2024-02-15T11:15:40;22.20;65.50
36498;DHT22;22513;51.222;6.480;2024-02-15T11:18:07;22.20;65.50
36498;DHT22;22513;51.222;6.480;2024-02-15T11:22:59;22.20;65.50
36498;DHT22;22513;51.222;6.480;2024-02-15T11:25:37;22.20;65.50
36498;DHT22;22513;51.222;6.480;2024-02-15T11:30:55;22.20;65.50
36498;DHT22;22513;51.222;6.480;2024-02-15T11:33:31;22.30;65.50
36498;DHT22;22513;51.222;6.480;2024-02-15T11:38:30;22.30;65.50
36498;DHT22;22513;51.222;6.480;2024-02-15T11:43:45;22.30;65.40
36498;DHT22;22513;51.222;6.480;2024-02-15T11:46:21;22.30;65.30
36498;DHT22;22513;51.222;6.480;2024-02-15T11:48:47;22.40;65.30
36498;DHT22;22513;51.222;6.480;2024-02-15T11:54:10;22.40;65.20
36498;DHT22;22513;51.222;6.480;2024-02-15T11:59:12;22.40;65.10
36498;DHT22;22513;51.222;6.480;2024-02-15T12:01:57;22.40;65.00
36498;DHT22;22513;51.222;6.480;2024-02-15T12:04:42;22.40;65.00
36498;DHT22;22513;51.222;6.480;2024-02-15T12:07:26;22.40;64.80
36498;DHT22;22513;51.222;6.480;2024-02-15T12:10:17;22.40;64.70
36498;DHT22;22513;51.222;6.480;2024-02-15T12:13:01;22.50;64.70
36498;DHT22;22513;51.222;6.480;2024-02-15T12:15:58;22.50;64.70
36498;DHT22;22513;51.222;6.480;2024-02-15T12:18:43;22.40;64.50
36498;DHT22;22513;51.222;6.480;2024-02-15T12:21:13;22.50;64.50
36498;DHT22;22513;51.222;6.480;2024-02-15T12:23:40;22.50;64.40
36498;DHT22;22513;51.222;6.480;2024-02-15T12:26:07;22.50;64.30
36498;DHT22;22513;51.222;6.480;2024-02-15T12:28:33;22.50;64.30
36498;DHT22;22513;51.222;6.480;2024-02-15T12:31:01;22.50;64.20
36498;DHT22;22513;51.222;6.480;2024-02-15T12:33:27;22.50;64.20
36498;DHT22;22513;51.222;6.480;2024-02-15T12:36:04;22.50;64.00
36498;DHT22;22513;51.222;6.480;2024-02-15T12:38:34;22.50;64.00
36498;DHT22;22513;51.222;6.480;2024-02-15T12:41:03;22.50;63.90
36498;DHT22;22513;51.222;6.480;2024-02-15T12:43:29;22.50;64.00
36498;DHT22;22513;51.222;6.480;2024-02-15T12:45:54;22.50;63.90
36498;DHT22;22513;51.222;6.480;2024-02-15T12:48:22;22.50;63.80
36498;DHT22;22513;51.222;6.480;2024-02-15T12:50:48;22.50;63.70
36498;DHT22;22513;51.222;6.480;2024-02-15T12:53:21;22.50;63.70
36498;DHT22;22513;51.222;6.480;2024-02-15T12:55:53;22.60;63.60
36498;DHT22;22513;51.222;6.480;2024-02-15T12:58:20;22.50;63.50
36498;DHT22;22513;51.222;6.480;2024-02-15T13:00:45;22.60;63.50
36498;DHT22;22513;51.222;6.480;2024-02-15T13:03:12;22.60;63.40
36498;DHT22;22513;51.222;6.480;2024-02-15T13:05:40;22.50;63.30
36498;DHT22;22513;51.222;6.480;2024-02-15T13:08:06;22.50;63.30
36498;DHT22;22513;51.222;6.480;2024-02-15T13:10:36;22.50;63.20
36498;DHT22;22513;51.222;6.480;2024-02-15T13:13:02;22.60;63.20
36498;DHT22;22513;51.222;6.480;2024-02-15T13:15:27;22.50;63.10
36498;DHT22;22513;51.222;6.480;2024-02-15T13:17:58;22.60;63.10
36498;DHT22;22513;51.222;6.480;2024-02-15T13:20:25;22.50;63.00
36498;DHT22;22513;51.222;6.480;2024-02-15T13:23:02;22.60;63.10
36498;DHT22;22513;51.222;6.480;2024-02-15T13:25:34;22.60;63.10
36498;DHT22;22513;51.222;6.480;2024-02-15T13:27:59;22.60;63.00
36498;DHT22;22513;51.222;6.480;2024-02-15T13:30:25;22.60;63.00
36498;DHT22;22513;51.222;6.480;2024-02-15T13:32:53;22.60;62.90
36498;DHT22;22513;51.222;6.480;2024-02-15T13:35:22;22.60;62.90
36498;DHT22;22513;51.222;6.480;2024-02-15T13:37:53;22.60;62.90
36498;DHT22;22513;51.222;6.480;2024-02-15T13:40:22;22.60;63.00
36498;DHT22;22513;51.222;6.480;2024-02-15T13:42:56;22.60;63.80
36498;DHT22;22513;51.222;6.480;2024-02-15T13:45:42;22.70;62.90
36498;DHT22;22513;51.222;6.480;2024-02-15T13:48:09;22.60;62.80
36498;DHT22;22513;51.222;6.480;2024-02-15T13:50:35;22.70;62.90
36498;DHT22;22513;51.222;6.480;2024-02-15T13:53:01;22.70;62.80
36498;DHT22;22513;51.222;6.480;2024-02-15T13:55:27;22.70;62.80
36498;DHT22;22513;51.222;6.480;2024-02-15T13:57:54;22.60;62.70
36498;DHT22;22513;51.222;6.480;2024-02-15T14:00:23;22.70;62.70
36498;DHT22;22513;51.222;6.480;2024-02-15T14:02:55;22.60;62.70
36498;DHT22;22513;51.222;6.480;2024-02-15T14:05:25;22.60;62.60
36498;DHT22;22513;51.222;6.480;2024-02-15T14:07:56;22.60;62.50
36498;DHT22;22513;51.222;6.480;2024-02-15T14:10:23;22.60;62.40
36498;DHT22;22513;51.222;6.480;2024-02-15T14:12:50;22.60;62.50
36498;DHT22;22513;51.222;6.480;2024-02-15T14:15:27;22.60;62.40
36498;DHT22;22513;51.222;6.480;2024-02-15T14:17:53;22.60;62.50
36498;DHT22;22513;51.222;6.480;2024-02-15T14:20:19;22.60;62.40
36498;DHT22;22513;51.222;6.480;2024-02-15T14:22:47;22.60;62.30
36498;DHT22;22513;51.222;6.480;2024-02-15T14:25:18;22.60;62.30
36498;DHT22;22513;51.222;6.480;2024-02-15T14:27:44;22.60;62.30
36498;DHT22;22513;51.222;6.480;2024-02-15T14:30:11;22.60;62.20
36498;DHT22;22513;51.222;6.480;2024-02-15T14:32:55;22.60;62.20
36498;DHT22;22513;51.222;6.480;2024-02-15T14:35:31;22.60;62.20
36498;DHT22;22513;51.222;6.480;2024-02-15T14:38:03;22.60;62.20
36498;DHT22;22513;51.222;6.480;2024-02-15T14:40:33;22.60;62.10
36498;DHT22;22513;51.222;6.480;2024-02-15T14:42:59;22.60;62.10
36498;DHT22;22513;51.222;6.480;2024-02-15T14:45:25;22.60;62.10
36498;DHT22;22513;51.222;6.480;2024-02-15T14:47:52;22.60;62.10
36498;DHT22;22513;51.222;6.480;2024-02-15T14:50:17;22.60;62.00
36498;DHT22;22513;51.222;6.480;2024-02-15T14:52:44;22.60;62.00
36498;DHT22;22513;51.222;6.480;2024-02-15T14:55:10;22.60;61.90
36498;DHT22;22513;51.222;6.480;2024-02-15T14:57:36;22.60;61.90
36498;DHT22;22513;51.222;6.480;2024-02-15T15:00:04;22.60;61.90
36498;DHT22;22513;51.222;6.480;2024-02-15T15:02:30;22.50;61.80
36498;DHT22;22513;51.222;6.480;2024-02-15T15:04:56;22.50;61.80
36498;DHT22;22513;51.222;6.480;2024-02-15T15:07:40;22.50;61.80
36498;DHT22;22513;51.222;6.480;2024-02-15T15:10:24;22.50;61.80
36498;DHT22;22513;51.222;6.480;2024-02-15T15:13:09;22.50;61.80
36498;DHT22;22513;51.222;6.480;2024-02-15T15:15:36;22.50;61.90
36498;DHT22;22513;51.222;6.480;2024-02-15T15:18:03;22.40;61.90
36498;DHT22;22513;51.222;6.480;2024-02-15T15:20:30;22.50;61.90
36498;DHT22;22513;51.222;6.480;2024-02-15T15:22:58;22.40;61.90
36498;DHT22;22513;51.222;6.480;2024-02-15T15:25:26;22.40;61.90
36498;DHT22;22513;51.222;6.480;2024-02-15T15:27:53;22.40;61.80
36498;DHT22;22513;51.222;6.480;2024-02-15T15:30:19;22.40;61.80
36498;DHT22;22513;51.222;6.480;2024-02-15T15:32:46;22.30;61.70
36498;DHT22;22513;51.222;6.480;2024-02-15T15:35:12;22.30;61.70
36498;DHT22;22513;51.222;6.480;2024-02-15T15:37:38;22.30;61.70
36498;DHT22;22513;51.222;6.480;2024-02-15T15:40:05;22.30;61.70
36498;DHT22;22513;51.222;6.480;2024-02-15T15:42:34;22.30;61.60
36498;DHT22;22513;51.222;6.480;2024-02-15T15:45:01;22.30;61.60
36498;DHT22;22513;51.222;6.480;2024-02-15T15:47:27;22.30;61.60
36498;DHT22;22513;51.222;6.480;2024-02-15T15:49:52;22.30;62.50
36498;DHT22;22513;51.222;6.480;2024-02-15T15:52:20;22.30;61.50
36498;DHT22;22513;51.222;6.480;2024-02-15T15:54:46;22.20;61.50
36498;DHT22;22513;51.222;6.480;2024-02-15T15:57:12;22.30;61.50